Pagrindinis puslapis
METAR-TAF:

METAR-TAF

Oro uostai :

Šarm el Šeichas, Egiptas

platuma: 27-58N, ilguma: 034-23E, Aukštis: 50 m

Dabartinis oras

Ataskaita buvo paskelbta 2 valandos ir 36 minutes, ne 08:00 UTC
Vėjas 10 kt iš Šiaurės/Šiaurės Rytų
Temperatūra 34°C
Drėgmė 47%
Slėgis 1014 hPa
Matomumas 10 km arba daugiau
nėra debesų žemiau 1500 m ir nėra kamuolinių lietaus debesų

METAR: HESH 140800Z 02010KT CAVOK 34/21 Q1014 NOSIG

Laikas: 12:36 (10:36 UTC)

Prognozė

Ataskaita buvo paskelbta 5 valandos ir 36 minutes, ne 05:00 UTC
Prognozė galioja nuo 14 metu 06 UTC su 15 metu 12 UTC
Vėjas 15 kt iš Šiaurės
Matomumas 10 km arba daugiau
Išsisklaidę debesys ne aukštis 2500 ft
Laikinai
nuo 14 metu 10 UTC su 14 metu 16 UTC
Vėjas 12 kt iš Vakarų/Pietvakarių
Matomumas: 4000 m
Su prošvaistėmis ne aukštis 2000 ft
lietus

TAF: HESH 140500Z 1406/1512 36015KT 9999 SCT025 TEMPO 1410/1416 25012KT 4000 RA BKN020

Orai ataskaitas ir orų prognozės (METAR, TAF).

turimą stotys yra geltonos ir raudonos taškus žemėlapyje.

Perkelti pele per norėdami pamatyti stoties vardą.

Tada spustelėkite, norėdami matyti oro stebėjimo ir prognozės.

Norėdami pakeisti žemėlapį: spustelėkite ant žalios mygtukų su juodo kryžiaus žemyn,; žalią mygtuką su brūkšneliu, jei norite nutolinti; arba žalių rodyklių gretimoms žemėlapius.


METAR-TAF: